createdAt,value
2018-07-01T00:01:53.309Z,0.70
2018-07-01T00:04:22.220Z,0.80
2018-07-01T00:06:50.529Z,0.80
2018-07-01T00:09:19.076Z,1.00
2018-07-01T00:11:47.890Z,0.90
2018-07-01T00:14:17.158Z,0.98
2018-07-01T00:16:45.429Z,1.00
2018-07-01T00:19:13.742Z,1.00
2018-07-01T00:21:42.049Z,0.97
2018-07-01T00:24:10.331Z,0.90
2018-07-01T00:26:39.164Z,1.30
2018-07-01T00:29:07.839Z,0.95
2018-07-01T00:31:36.139Z,1.10
2018-07-01T00:34:04.152Z,1.00
2018-07-01T00:36:32.474Z,1.00
2018-07-01T00:39:00.755Z,1.00
2018-07-01T00:41:29.345Z,0.90
2018-07-01T00:43:57.687Z,1.23
2018-07-01T00:46:25.978Z,1.03
2018-07-01T00:48:54.252Z,1.07
2018-07-01T00:51:22.515Z,0.90
2018-07-01T00:53:50.773Z,1.20
2018-07-01T00:56:19.115Z,0.87
2018-07-01T00:58:48.032Z,1.15
2018-07-01T01:01:16.678Z,1.20
2018-07-01T01:03:45.318Z,1.00
2018-07-01T01:06:13.577Z,1.10
2018-07-01T01:08:41.871Z,1.30
2018-07-01T01:11:11.012Z,0.90
2018-07-01T01:13:39.268Z,1.07
2018-07-01T01:16:07.732Z,1.10
2018-07-01T01:18:36.325Z,0.93
2018-07-01T01:21:05.348Z,1.23
2018-07-01T01:23:33.969Z,1.30
2018-07-01T01:26:02.271Z,1.20
2018-07-01T01:28:30.713Z,1.10
2018-07-01T01:30:58.991Z,1.13
2018-07-01T01:33:27.334Z,1.20
2018-07-01T01:35:55.651Z,1.10
2018-07-01T01:38:25.604Z,1.20
2018-07-01T01:40:58.511Z,1.20
2018-07-01T01:43:31.903Z,1.10
2018-07-01T01:46:35.854Z,1.20
2018-07-01T01:49:09.326Z,0.93
2018-07-01T01:52:13.316Z,0.90
2018-07-01T01:56:50.528Z,0.90
2018-07-01T01:59:31.252Z,1.00
2018-07-01T02:02:08.778Z,1.10
2018-07-01T02:04:42.256Z,1.13
2018-07-01T02:07:14.529Z,1.20
2018-07-01T02:09:42.775Z,1.13
2018-07-01T02:12:13.057Z,1.10
2018-07-01T02:14:49.525Z,1.10
2018-07-01T02:17:24.074Z,1.10
2018-07-01T02:19:52.587Z,1.20
2018-07-01T02:22:28.195Z,1.30
2018-07-01T02:24:57.759Z,1.10
2018-07-01T02:27:26.041Z,1.07
2018-07-01T02:29:54.322Z,0.80
2018-07-01T02:32:22.584Z,1.00
2018-07-01T02:34:50.933Z,1.40
2018-07-01T02:37:19.676Z,1.00
2018-07-01T02:39:47.971Z,1.10
2018-07-01T02:42:16.495Z,1.17
2018-07-01T02:44:45.095Z,1.10
2018-07-01T02:47:13.408Z,1.00
2018-07-01T02:49:41.664Z,0.93
2018-07-01T02:52:09.925Z,0.77
2018-07-01T02:54:38.237Z,0.90
2018-07-01T02:57:06.551Z,0.90
2018-07-01T02:59:34.843Z,0.90
2018-07-01T03:02:03.083Z,1.00
2018-07-01T03:04:31.347Z,0.80
2018-07-01T03:06:59.959Z,1.10
2018-07-01T03:09:28.253Z,0.67
2018-07-01T03:11:56.548Z,0.70
2018-07-01T03:14:24.831Z,0.90
2018-07-01T03:16:53.143Z,0.80
2018-07-01T03:19:21.407Z,0.80
2018-07-01T03:21:49.706Z,0.90
2018-07-01T03:24:17.950Z,0.70
2018-07-01T03:26:46.206Z,0.70
2018-07-01T03:29:14.444Z,0.80
2018-07-01T03:31:42.734Z,0.80
2018-07-01T03:34:11.570Z,1.17
2018-07-01T03:36:40.167Z,0.80
2018-07-01T03:39:09.575Z,0.93
2018-07-01T03:41:37.818Z,0.73
2018-07-01T03:44:06.454Z,0.60
2018-07-01T03:46:34.881Z,0.77
2018-07-01T03:49:03.192Z,0.60
2018-07-01T03:51:31.435Z,0.93
2018-07-01T03:53:59.714Z,0.77
2018-07-01T03:56:27.965Z,0.53
2018-07-01T03:58:56.301Z,0.70
2018-07-01T04:01:24.630Z,0.83
2018-07-01T04:03:53.150Z,0.60
2018-07-01T04:06:21.885Z,0.83
2018-07-01T04:08:50.121Z,0.93
2018-07-01T04:11:18.369Z,0.67
2018-07-01T04:13:46.627Z,1.00
2018-07-01T04:16:15.134Z,0.57
2018-07-01T04:18:43.622Z,0.87
2018-07-01T04:21:11.954Z,0.97
2018-07-01T04:23:40.563Z,0.70
2018-07-01T04:26:08.840Z,0.60
2018-07-01T04:28:37.196Z,0.60
2018-07-01T04:31:05.571Z,0.87
2018-07-01T04:33:34.356Z,0.80
2018-07-01T04:36:02.619Z,0.70
2018-07-01T04:38:31.254Z,0.80
2018-07-01T04:40:59.522Z,0.70
2018-07-01T04:43:27.818Z,0.50
2018-07-01T04:45:56.096Z,1.00
2018-07-01T04:48:24.366Z,0.87
2018-07-01T04:50:52.992Z,0.70
2018-07-01T04:53:21.251Z,0.70
2018-07-01T04:55:49.547Z,0.77
2018-07-01T04:58:17.813Z,0.80
2018-07-01T05:00:46.130Z,0.90
2018-07-01T05:03:15.634Z,0.70
2018-07-01T05:05:43.879Z,0.80
2018-07-01T05:08:12.437Z,0.90
2018-07-01T05:10:40.723Z,0.87
2018-07-01T05:13:09.002Z,0.60
2018-07-01T05:15:37.293Z,0.70
2018-07-01T05:18:05.633Z,0.60
2018-07-01T05:20:33.964Z,0.70
2018-07-01T05:23:02.724Z,1.00
2018-07-01T05:25:31.024Z,0.80
2018-07-01T05:27:59.266Z,0.60
2018-07-01T05:30:27.560Z,0.60
2018-07-01T05:32:56.265Z,0.70
2018-07-01T05:35:24.539Z,0.83
2018-07-01T05:37:52.854Z,0.63
2018-07-01T05:40:21.424Z,0.63
2018-07-01T05:42:49.669Z,0.80
2018-07-01T05:45:17.940Z,0.60
2018-07-01T05:47:46.195Z,0.60
2018-07-01T05:50:14.531Z,0.70
2018-07-01T05:52:43.122Z,0.50
2018-07-01T05:55:11.759Z,0.80
2018-07-01T05:57:40.017Z,0.60
2018-07-01T06:00:08.317Z,0.70
2018-07-01T06:02:36.624Z,0.70
2018-07-01T06:05:04.864Z,0.70
2018-07-01T06:07:33.137Z,0.80
2018-07-01T06:10:01.399Z,0.50
2018-07-01T06:12:29.767Z,0.67
2018-07-01T06:14:58.589Z,0.60
2018-07-01T06:17:26.888Z,0.80
2018-07-01T06:19:55.738Z,0.60
2018-07-01T06:22:24.584Z,0.60
2018-07-01T06:24:53.393Z,0.65
2018-07-01T06:27:22.199Z,0.68
2018-07-01T06:30:00.595Z,0.50
2018-07-01T06:32:29.420Z,0.50
2018-07-01T06:37:33.104Z,0.40
2018-07-01T06:40:02.017Z,0.82
2018-07-01T06:42:30.878Z,0.78
2018-07-01T06:45:02.881Z,0.98
2018-07-01T06:47:31.759Z,0.60
2018-07-01T06:50:00.626Z,0.50
2018-07-01T06:52:29.509Z,0.80
2018-07-01T06:54:58.438Z,0.60
2018-07-01T06:57:27.286Z,0.60
2018-07-01T06:59:56.456Z,0.70
2018-07-01T07:02:25.740Z,0.42
2018-07-01T07:04:54.855Z,0.70
2018-07-01T07:07:23.791Z,0.60
2018-07-01T07:09:52.645Z,0.57
2018-07-01T07:12:21.855Z,0.60
2018-07-01T07:14:50.703Z,0.55
2018-07-01T07:17:19.582Z,0.60
2018-07-01T07:19:48.696Z,0.95
2018-07-01T07:22:17.799Z,0.88
2018-07-01T07:24:46.965Z,0.50
2018-07-01T07:27:16.138Z,0.50
2018-07-01T07:29:45.091Z,0.65
2018-07-01T07:32:13.978Z,0.60
2018-07-01T07:34:42.809Z,0.80
2018-07-01T07:37:11.721Z,0.70
2018-07-01T07:39:40.559Z,0.85
2018-07-01T07:42:09.460Z,0.80
2018-07-01T07:44:38.534Z,0.75
2018-07-01T07:47:07.529Z,0.60
2018-07-01T07:49:37.002Z,0.60
2018-07-01T07:52:12.624Z,0.70
2018-07-01T07:54:41.942Z,0.60
2018-07-01T07:57:10.809Z,0.60
2018-07-01T07:59:39.828Z,0.70
2018-07-01T08:02:09.053Z,0.72
2018-07-01T08:04:37.608Z,0.60
2018-07-01T08:07:14.621Z,0.70
2018-07-01T08:09:43.639Z,0.62
2018-07-01T08:12:12.861Z,0.50
2018-07-01T08:14:41.905Z,0.70
2018-07-01T08:17:11.184Z,0.72
2018-07-01T08:19:40.313Z,0.60
2018-07-01T08:22:09.416Z,0.60
2018-07-01T08:24:41.729Z,0.68
2018-07-01T08:27:10.603Z,0.60
2018-07-01T08:29:39.816Z,0.68
2018-07-01T08:32:09.108Z,0.53
2018-07-01T08:34:38.025Z,0.45
2018-07-01T08:37:07.029Z,1.07
2018-07-01T08:39:39.069Z,0.60
2018-07-01T08:42:26.750Z,0.85
2018-07-01T08:44:56.494Z,0.60
2018-07-01T08:47:25.409Z,0.90
2018-07-01T08:49:54.464Z,0.60
2018-07-01T08:52:23.442Z,0.68
2018-07-01T08:54:55.490Z,0.57
2018-07-01T08:57:24.609Z,0.55
2018-07-01T08:59:53.794Z,0.57
2018-07-01T09:02:22.923Z,0.78
2018-07-01T09:04:51.711Z,0.50
2018-07-01T09:07:20.812Z,0.68
2018-07-01T09:09:50.275Z,0.82
2018-07-01T09:12:19.154Z,0.60
2018-07-01T09:14:48.040Z,0.80
2018-07-01T09:17:16.941Z,0.50
2018-07-01T09:19:46.017Z,0.60
2018-07-01T09:22:17.923Z,0.55
2018-07-01T09:24:46.810Z,0.50
2018-07-01T09:27:15.773Z,0.70
2018-07-01T09:29:49.687Z,0.45
2018-07-01T09:32:18.916Z,0.60
2018-07-01T09:34:47.817Z,0.50
2018-07-01T09:37:16.705Z,0.80
2018-07-01T09:39:45.651Z,0.45
2018-07-01T09:42:14.897Z,0.60
2018-07-01T09:44:43.774Z,0.88
2018-07-01T09:47:12.932Z,0.65
2018-07-01T09:49:41.818Z,0.42
2018-07-01T09:52:10.706Z,0.85
2018-07-01T09:54:39.584Z,0.70
2018-07-01T09:57:08.786Z,0.78
2018-07-01T09:59:37.731Z,0.80
2018-07-01T10:02:06.566Z,0.75
2018-07-01T10:04:35.452Z,0.60
2018-07-01T10:07:04.824Z,0.60
2018-07-01T10:09:33.689Z,0.80
2018-07-01T10:12:02.915Z,0.40
2018-07-01T10:14:31.946Z,0.93
2018-07-01T10:17:00.811Z,0.65
2018-07-01T10:19:29.736Z,0.50
2018-07-01T10:21:58.595Z,0.70
2018-07-01T10:24:27.464Z,0.50
2018-07-01T10:26:56.344Z,0.60
2018-07-01T10:29:25.215Z,0.70
2018-07-01T10:31:54.121Z,0.70
2018-07-01T10:34:22.901Z,0.70
2018-07-01T10:36:51.781Z,0.47
2018-07-01T10:39:20.688Z,0.98
2018-07-01T10:41:49.596Z,0.57
2018-07-01T10:44:18.533Z,0.50
2018-07-01T10:46:47.407Z,0.60
2018-07-01T10:49:16.287Z,0.37
2018-07-01T10:51:45.553Z,0.70
2018-07-01T10:54:14.558Z,0.80
2018-07-01T10:56:43.806Z,0.62
2018-07-01T10:59:13.060Z,0.62
2018-07-01T11:01:41.980Z,0.60
2018-07-01T11:04:10.539Z,0.80
2018-07-01T11:06:39.388Z,0.60
2018-07-01T11:09:10.410Z,0.35
2018-07-01T11:11:48.696Z,0.45
2018-07-01T11:14:17.758Z,0.45
2018-07-01T11:16:46.589Z,0.55
2018-07-01T11:19:15.520Z,0.40
2018-07-01T11:21:44.371Z,0.60
2018-07-01T11:24:13.646Z,0.60
2018-07-01T11:26:42.523Z,0.60
2018-07-01T11:29:11.538Z,0.50
2018-07-01T11:31:40.455Z,0.50
2018-07-01T11:34:09.652Z,0.50
2018-07-01T11:36:38.553Z,0.50
2018-07-01T11:39:09.009Z,0.60
2018-07-01T11:41:37.638Z,0.78
2018-07-01T11:44:06.499Z,0.70
2018-07-01T11:46:35.293Z,0.62
2018-07-01T11:49:04.252Z,0.70
2018-07-01T11:51:33.166Z,0.50
2018-07-01T11:54:02.046Z,0.60
2018-07-01T11:56:30.922Z,0.50
2018-07-01T11:58:59.820Z,0.53
2018-07-01T12:01:28.805Z,0.40
2018-07-01T12:03:57.923Z,0.50
2018-07-01T12:06:26.855Z,0.65
2018-07-01T12:08:55.766Z,0.40
2018-07-01T12:11:24.385Z,0.53
2018-07-01T12:13:53.852Z,0.72
2018-07-01T12:16:22.786Z,0.40
2018-07-01T12:18:51.696Z,0.50
2018-07-01T12:21:20.614Z,0.45
2018-07-01T12:23:49.778Z,0.40
2018-07-01T12:26:18.713Z,0.60
2018-07-01T12:28:47.680Z,0.70
2018-07-01T12:31:16.727Z,0.45
2018-07-01T12:33:45.596Z,0.50
2018-07-01T12:36:14.454Z,0.60
2018-07-01T12:38:43.379Z,0.60
2018-07-01T12:41:12.612Z,0.45
2018-07-01T12:43:41.590Z,0.50
2018-07-01T12:46:10.819Z,0.60
2018-07-01T12:48:39.905Z,0.40
2018-07-01T12:51:09.032Z,0.42
2018-07-01T12:53:38.598Z,0.90
2018-07-01T12:56:07.851Z,0.70
2018-07-01T12:58:36.882Z,0.62
2018-07-01T13:01:06.338Z,0.50
2018-07-01T13:03:34.719Z,0.40
2018-07-01T13:06:03.699Z,0.33
2018-07-01T13:08:32.628Z,0.55
2018-07-01T13:11:01.370Z,0.73
2018-07-01T13:13:30.636Z,0.35
2018-07-01T13:15:59.583Z,0.45
2018-07-01T13:18:28.511Z,0.80
2018-07-01T13:20:57.632Z,0.50
2018-07-01T13:23:26.594Z,0.40
2018-07-01T13:25:55.561Z,0.42
2018-07-01T13:28:24.480Z,0.72
2018-07-01T13:30:53.446Z,0.50
2018-07-01T13:33:22.649Z,0.70
2018-07-01T13:35:51.598Z,0.68
2018-07-01T13:38:20.672Z,0.60
2018-07-01T13:40:49.540Z,0.35
2018-07-01T13:43:18.104Z,0.50
2018-07-01T13:45:46.748Z,0.50
2018-07-01T13:48:15.602Z,0.60
2018-07-01T13:50:44.464Z,0.60
2018-07-01T13:53:13.130Z,0.47
2018-07-01T13:55:41.694Z,0.47
2018-07-01T13:58:10.595Z,0.40
2018-07-01T14:00:39.612Z,0.30
2018-07-01T14:03:08.355Z,0.47
2018-07-01T14:05:36.916Z,0.70
2018-07-01T14:08:06.166Z,0.40
2018-07-01T14:10:35.119Z,0.60
2018-07-01T14:13:04.317Z,0.60
2018-07-01T14:15:33.246Z,0.80
2018-07-01T14:18:01.883Z,0.70
2018-07-01T14:20:31.075Z,0.70
2018-07-01T14:22:59.668Z,0.60
2018-07-01T14:25:28.326Z,0.67
2018-07-01T14:27:57.141Z,0.50
2018-07-01T14:30:25.739Z,0.70
2018-07-01T14:32:54.311Z,0.70
2018-07-01T14:35:22.907Z,0.63
2018-07-01T14:37:51.541Z,0.70
2018-07-01T14:40:20.176Z,0.60
2018-07-01T14:42:48.769Z,0.50
2018-07-01T14:45:17.404Z,0.50
2018-07-01T14:47:46.013Z,0.60
2018-07-01T14:50:14.973Z,0.47
2018-07-01T14:52:43.688Z,0.50
2018-07-01T14:55:12.239Z,0.63
2018-07-01T14:57:40.828Z,0.40
2018-07-01T15:00:09.407Z,0.50
2018-07-01T15:02:38.051Z,0.60
2018-07-01T15:05:06.620Z,0.60
2018-07-01T15:07:35.204Z,0.60
2018-07-01T15:10:03.806Z,0.23
2018-07-01T15:12:32.422Z,0.50
2018-07-01T15:15:01.076Z,0.50
2018-07-01T15:17:29.742Z,0.30
2018-07-01T15:19:59.134Z,0.53
2018-07-01T15:22:27.740Z,0.40
2018-07-01T15:24:56.610Z,0.57
2018-07-01T15:27:25.557Z,0.30
2018-07-01T15:29:54.159Z,0.60
2018-07-01T15:32:22.832Z,0.30
2018-07-01T15:34:51.452Z,0.50
2018-07-01T15:37:20.016Z,0.40
2018-07-01T15:39:48.597Z,0.53
2018-07-01T15:42:17.175Z,0.60
2018-07-01T15:44:45.855Z,0.40
2018-07-01T15:47:14.614Z,0.50
2018-07-01T15:49:43.193Z,0.47
2018-07-01T15:52:11.781Z,0.60
2018-07-01T15:54:40.369Z,0.60
2018-07-01T15:57:08.943Z,0.60
2018-07-01T15:59:37.905Z,0.40
2018-07-01T16:02:07.036Z,0.70
2018-07-01T16:04:35.645Z,0.60
2018-07-01T16:07:04.218Z,0.50
2018-07-01T16:09:32.794Z,0.50
2018-07-01T16:12:01.382Z,0.70
2018-07-01T16:14:30.005Z,0.70
2018-07-01T16:16:58.572Z,1.33
2018-07-01T16:19:27.137Z,0.40
2018-07-01T16:21:55.765Z,0.60
2018-07-01T16:24:24.367Z,0.50
2018-07-01T16:26:56.592Z,0.70
2018-07-01T16:29:25.189Z,0.77
2018-07-01T16:31:53.769Z,0.60
2018-07-01T16:34:22.352Z,0.70
2018-07-01T16:36:50.962Z,0.53
2018-07-01T16:39:19.564Z,0.60
2018-07-01T16:41:48.216Z,0.50
2018-07-01T16:44:16.799Z,0.60
2018-07-01T16:46:45.418Z,0.50
2018-07-01T16:49:14.048Z,0.57
2018-07-01T16:51:42.644Z,0.73
2018-07-01T16:54:11.300Z,0.47
2018-07-01T16:56:39.976Z,0.70
2018-07-01T16:59:08.573Z,0.53
2018-07-01T17:01:37.468Z,0.53
2018-07-01T17:04:06.102Z,0.50
2018-07-01T17:06:34.708Z,0.73
2018-07-01T17:09:04.448Z,0.60
2018-07-01T17:11:33.365Z,0.53
2018-07-01T17:14:01.910Z,0.60
2018-07-01T17:16:30.518Z,0.80
2018-07-01T17:19:08.512Z,0.60
2018-07-01T17:21:40.362Z,0.70
2018-07-01T17:24:08.989Z,0.97
2018-07-01T17:26:37.560Z,0.60
2018-07-01T17:29:06.165Z,0.53
2018-07-01T17:31:40.241Z,0.60
2018-07-01T17:34:08.840Z,0.63
2018-07-01T17:36:37.428Z,0.50
2018-07-01T17:39:08.166Z,0.70
2018-07-01T17:41:37.002Z,0.70
2018-07-01T17:44:06.450Z,0.67
2018-07-01T17:46:35.780Z,0.60
2018-07-01T17:49:04.909Z,0.50
2018-07-01T17:51:33.929Z,0.50
2018-07-01T17:54:02.827Z,0.45
2018-07-01T17:56:31.831Z,0.50
2018-07-01T17:59:00.745Z,0.40
2018-07-01T18:01:29.664Z,0.50
2018-07-01T18:03:58.746Z,0.40
2018-07-01T18:06:27.684Z,0.50
2018-07-01T18:09:06.370Z,0.50
2018-07-01T18:11:35.274Z,0.62
2018-07-01T18:14:04.506Z,0.80
2018-07-01T18:16:33.442Z,0.50
2018-07-01T18:19:02.536Z,0.68
2018-07-01T18:21:31.822Z,0.60
2018-07-01T18:24:27.544Z,0.50
2018-07-01T18:26:29.758Z,0.57
2018-07-01T18:29:08.187Z,0.70
2018-07-01T18:31:27.930Z,0.68
2018-07-01T18:33:56.952Z,0.60
2018-07-01T18:36:25.847Z,0.50
2018-07-01T18:38:54.712Z,0.70
2018-07-01T18:41:23.278Z,0.50
2018-07-01T18:43:52.116Z,0.50
2018-07-01T18:46:20.996Z,0.62
2018-07-01T18:48:49.993Z,0.62
2018-07-01T18:51:18.625Z,0.85
2018-07-01T18:53:47.506Z,0.50
2018-07-01T18:56:16.445Z,0.60
2018-07-01T18:58:45.453Z,0.50
2018-07-01T19:01:14.395Z,0.70
2018-07-01T19:03:43.214Z,0.97
2018-07-01T19:06:12.011Z,0.60
2018-07-01T19:08:41.103Z,0.68
2018-07-01T19:11:10.492Z,0.70
2018-07-01T19:13:39.479Z,0.70
2018-07-01T19:16:08.791Z,0.80
2018-07-01T19:18:37.822Z,0.62
2018-07-01T19:21:08.772Z,0.50
2018-07-01T19:23:38.967Z,0.60
2018-07-01T19:26:08.622Z,0.70
2018-07-01T19:28:38.044Z,0.70
2018-07-01T19:31:07.227Z,0.60
2018-07-01T19:33:36.329Z,0.55
2018-07-01T19:36:05.625Z,0.70
2018-07-01T19:38:35.066Z,0.65
2018-07-01T19:41:04.235Z,0.78
2018-07-01T19:43:34.032Z,0.70
2018-07-01T19:46:03.492Z,0.55
2018-07-01T19:48:33.445Z,0.50
2018-07-01T19:51:02.954Z,0.75
2018-07-01T19:53:32.305Z,0.95
2018-07-01T19:56:03.716Z,0.80
2018-07-01T19:58:32.758Z,0.90
2018-07-01T20:01:01.930Z,0.80
2018-07-01T20:03:33.368Z,0.70
2018-07-01T20:06:02.442Z,0.70
2018-07-01T20:08:31.436Z,0.90
2018-07-01T20:13:36.159Z,0.60
2018-07-01T20:16:05.033Z,0.68
2018-07-01T20:18:34.227Z,0.75
2018-07-01T20:21:03.289Z,0.60
2018-07-01T20:23:32.125Z,0.80
2018-07-01T20:26:01.931Z,0.60
2018-07-01T20:28:30.977Z,0.72
2018-07-01T20:30:59.887Z,0.57
2018-07-01T20:33:41.251Z,0.72
2018-07-01T20:36:10.232Z,0.57
2018-07-01T20:38:39.205Z,0.72
2018-07-01T20:41:08.239Z,0.70
2018-07-01T20:43:37.174Z,0.90
2018-07-01T20:46:06.624Z,0.82
2018-07-01T20:48:37.140Z,0.90
2018-07-01T20:51:06.580Z,0.70
2018-07-01T20:54:34.290Z,1.00
2018-07-01T20:57:05.173Z,0.93
2018-07-01T20:59:36.899Z,1.00
2018-07-01T21:02:05.861Z,1.05
2018-07-01T21:04:35.041Z,1.12
2018-07-01T21:07:04.633Z,1.20
2018-07-01T21:09:33.571Z,1.30
2018-07-01T21:12:02.505Z,0.98
2018-07-01T21:14:31.458Z,1.10
2018-07-01T21:17:01.032Z,1.10
2018-07-01T21:22:05.165Z,1.00
2018-07-01T21:24:34.071Z,0.90
2018-07-01T21:27:03.345Z,0.80
2018-07-01T21:29:32.010Z,1.12
2018-07-01T21:32:01.098Z,1.02
2018-07-01T21:34:30.140Z,0.82
2018-07-01T21:36:59.203Z,0.90
2018-07-01T21:39:28.333Z,0.95
2018-07-01T21:41:57.420Z,1.05
2018-07-01T21:44:27.219Z,0.82
2018-07-01T21:46:59.384Z,0.90
2018-07-01T21:49:32.604Z,0.85
2018-07-01T21:52:10.664Z,0.70
2018-07-01T21:54:39.713Z,0.72
2018-07-01T21:57:08.820Z,0.62
2018-07-01T21:59:37.914Z,0.90
2018-07-01T22:02:07.051Z,0.95
2018-07-01T22:04:45.286Z,0.70
2018-07-01T22:07:13.851Z,0.63
2018-07-01T22:09:43.156Z,0.90
2018-07-01T22:12:23.643Z,0.68
2018-07-01T22:15:04.071Z,0.70
2018-07-01T22:17:32.861Z,0.60
2018-07-01T22:20:11.219Z,0.80
2018-07-01T22:22:52.513Z,0.77
2018-07-01T22:25:21.903Z,0.90
2018-07-01T22:27:50.572Z,0.55
2018-07-01T22:30:19.657Z,0.80
2018-07-01T22:32:48.814Z,0.70
2018-07-01T22:35:17.310Z,0.70
2018-07-01T22:37:49.727Z,0.60
2018-07-01T22:40:18.375Z,0.60
2018-07-01T22:42:47.080Z,0.60
2018-07-01T22:45:16.051Z,0.50
2018-07-01T22:47:44.932Z,0.77
2018-07-01T22:50:13.806Z,0.50
2018-07-01T22:52:42.379Z,0.60
2018-07-01T22:55:11.787Z,0.67
2018-07-01T22:57:40.317Z,0.47
2018-07-01T23:00:08.712Z,0.57
2018-07-01T23:03:14.455Z,0.70
2018-07-01T23:05:43.478Z,0.80
2018-07-01T23:08:11.964Z,0.80
2018-07-01T23:10:40.446Z,0.93
2018-07-01T23:13:08.969Z,0.70
2018-07-01T23:15:37.411Z,0.60
2018-07-01T23:18:05.901Z,0.63
2018-07-01T23:20:34.394Z,0.83
2018-07-01T23:23:02.876Z,0.80
2018-07-01T23:25:32.438Z,0.80
2018-07-01T23:28:00.939Z,0.70
2018-07-01T23:30:29.428Z,0.70
2018-07-01T23:32:57.886Z,0.80
2018-07-01T23:35:26.420Z,0.77
2018-07-01T23:37:54.956Z,0.80
2018-07-01T23:40:23.184Z,0.87
2018-07-01T23:42:51.651Z,0.70
2018-07-01T23:45:20.150Z,0.80
2018-07-01T23:47:48.640Z,0.90
2018-07-01T23:50:17.140Z,0.80
2018-07-01T23:52:46.528Z,1.00
2018-07-01T23:55:15.028Z,0.77
2018-07-01T23:57:43.556Z,0.73
